sensor_id;sensor_type;location;lat;lon;timestamp;pressure;altitude;pressure_sealevel;temperature;humidity
21109;BME280;10712;52.944;9.098;2023-02-12T00:00:45;103508.69;;;15.79;61.06
21109;BME280;10712;52.944;9.098;2023-02-12T00:03:11;103510.44;;;15.80;60.89
21109;BME280;10712;52.944;9.098;2023-02-12T00:05:38;103507.78;;;15.78;61.04
21109;BME280;10712;52.944;9.098;2023-02-12T00:08:04;103508.69;;;15.79;61.01
21109;BME280;10712;52.944;9.098;2023-02-12T00:10:30;103518.69;;;15.75;61.11
21109;BME280;10712;52.944;9.098;2023-02-12T00:12:56;103514.06;;;15.79;61.04
21109;BME280;10712;52.944;9.098;2023-02-12T00:15:21;103515.91;;;15.76;60.90
21109;BME280;10712;52.944;9.098;2023-02-12T00:17:47;103512.28;;;15.77;61.14
21109;BME280;10712;52.944;9.098;2023-02-12T00:20:13;103516.75;;;15.79;61.14
21109;BME280;10712;52.944;9.098;2023-02-12T00:22:39;103524.81;;;15.79;61.03
21109;BME280;10712;52.944;9.098;2023-02-12T00:25:05;103527.41;;;15.82;61.09
21109;BME280;10712;52.944;9.098;2023-02-12T00:27:35;103530.31;;;15.75;61.03
21109;BME280;10712;52.944;9.098;2023-02-12T00:30:01;103522.28;;;15.74;61.11
21109;BME280;10712;52.944;9.098;2023-02-12T00:32:27;103516.00;;;15.75;61.04
21109;BME280;10712;52.944;9.098;2023-02-12T00:34:52;103514.28;;;15.72;61.15
21109;BME280;10712;52.944;9.098;2023-02-12T00:37:18;103517.91;;;15.71;61.15
21109;BME280;10712;52.944;9.098;2023-02-12T00:39:44;103518.78;;;15.72;61.07
21109;BME280;10712;52.944;9.098;2023-02-12T00:42:10;103526.09;;;15.68;61.29
21109;BME280;10712;52.944;9.098;2023-02-12T00:44:36;103519.78;;;15.69;61.27
21109;BME280;10712;52.944;9.098;2023-02-12T00:47:03;103526.75;;;15.75;61.19
21109;BME280;10712;52.944;9.098;2023-02-12T00:49:30;103529.47;;;15.73;61.11
21109;BME280;10712;52.944;9.098;2023-02-12T00:52:01;103540.31;;;15.70;61.16
21109;BME280;10712;52.944;9.098;2023-02-12T00:54:28;103534.03;;;15.71;61.16
21109;BME280;10712;52.944;9.098;2023-02-12T00:56:55;103531.34;;;15.71;61.13
21109;BME280;10712;52.944;9.098;2023-02-12T00:59:22;103534.91;;;15.72;61.04
21109;BME280;10712;52.944;9.098;2023-02-12T01:01:50;103539.53;;;15.68;61.09
21109;BME280;10712;52.944;9.098;2023-02-12T01:04:17;103545.69;;;15.70;61.17
21109;BME280;10712;52.944;9.098;2023-02-12T01:06:43;103542.09;;;15.71;61.05
21109;BME280;10712;52.944;9.098;2023-02-12T01:09:09;103551.22;;;15.67;61.37
21109;BME280;10712;52.944;9.098;2023-02-12T01:11:35;103561.97;;;15.67;61.27
21109;BME280;10712;52.944;9.098;2023-02-12T01:14:01;103558.38;;;15.67;61.31
21109;BME280;10712;52.944;9.098;2023-02-12T01:16:27;103554.81;;;15.66;61.28
21109;BME280;10712;52.944;9.098;2023-02-12T01:18:54;103559.28;;;15.67;60.96
21109;BME280;10712;52.944;9.098;2023-02-12T01:21:26;103555.56;;;15.70;60.97
21109;BME280;10712;52.944;9.098;2023-02-12T01:23:54;103555.66;;;15.68;61.28
21109;BME280;10712;52.944;9.098;2023-02-12T01:26:21;103560.19;;;15.66;61.07
21109;BME280;10712;52.944;9.098;2023-02-12T01:28:53;103551.28;;;15.64;61.02
21109;BME280;10712;52.944;9.098;2023-02-12T01:31:24;103550.50;;;15.62;61.26
21109;BME280;10712;52.944;9.098;2023-02-12T01:33:53;103543.44;;;15.58;61.13
21109;BME280;10712;52.944;9.098;2023-02-12T01:36:20;103553.19;;;15.62;61.17
21109;BME280;10712;52.944;9.098;2023-02-12T01:38:47;103561.28;;;15.61;61.07
21109;BME280;10712;52.944;9.098;2023-02-12T01:41:19;103562.25;;;15.58;61.03
21109;BME280;10712;52.944;9.098;2023-02-12T01:46:33;103556.19;;;15.53;61.15
21109;BME280;10712;52.944;9.098;2023-02-12T01:49:00;103551.69;;;15.52;61.09
21109;BME280;10712;52.944;9.098;2023-02-12T01:51:28;103552.63;;;15.51;61.20
21109;BME280;10712;52.944;9.098;2023-02-12T01:53:59;103559.75;;;15.52;61.30
21109;BME280;10712;52.944;9.098;2023-02-12T01:56:27;103559.69;;;15.55;61.10
21109;BME280;10712;52.944;9.098;2023-02-12T01:58:55;103564.25;;;15.53;61.24
21109;BME280;10712;52.944;9.098;2023-02-12T02:01:26;103555.31;;;15.51;61.21
21109;BME280;10712;52.944;9.098;2023-02-12T02:04:06;103559.00;;;15.49;61.14
21109;BME280;10712;52.944;9.098;2023-02-12T02:06:39;103552.00;;;15.43;61.33
21109;BME280;10712;52.944;9.098;2023-02-12T02:09:08;103558.13;;;15.48;61.23
21109;BME280;10712;52.944;9.098;2023-02-12T02:11:34;103563.50;;;15.48;61.14
21109;BME280;10712;52.944;9.098;2023-02-12T02:14:18;103562.44;;;15.52;61.03
21109;BME280;10712;52.944;9.098;2023-02-12T02:17:30;103558.22;;;15.45;61.11
21109;BME280;10712;52.944;9.098;2023-02-12T02:35:27;103556.56;;;15.41;61.18
21109;BME280;10712;52.944;9.098;2023-02-12T02:38:19;103549.44;;;15.40;61.08
21109;BME280;10712;52.944;9.098;2023-02-12T02:41:10;103550.34;;;15.39;61.08
21109;BME280;10712;52.944;9.098;2023-02-12T02:43:49;103554.00;;;15.36;61.17
21109;BME280;10712;52.944;9.098;2023-02-12T02:46:31;103549.53;;;15.37;61.11
21109;BME280;10712;52.944;9.098;2023-02-12T02:49:04;103542.19;;;15.42;60.99
21109;BME280;10712;52.944;9.098;2023-02-12T02:51:56;103544.06;;;15.40;60.95
21109;BME280;10712;52.944;9.098;2023-02-12T02:54:38;103534.41;;;15.34;61.11
21109;BME280;10712;52.944;9.098;2023-02-12T02:57:16;103537.00;;;15.36;61.18
21109;BME280;10712;52.944;9.098;2023-02-12T02:59:53;103543.28;;;15.36;61.11
21109;BME280;10712;52.944;9.098;2023-02-12T03:02:35;103554.09;;;15.35;61.11
21109;BME280;10712;52.944;9.098;2023-02-12T03:05:38;103553.25;;;15.33;61.18
21109;BME280;10712;52.944;9.098;2023-02-12T03:08:17;103559.47;;;15.35;61.18
21109;BME280;10712;52.944;9.098;2023-02-12T03:10:57;103554.00;;;15.36;61.11
21109;BME280;10712;52.944;9.098;2023-02-12T03:13:35;103552.25;;;15.35;61.13
21109;BME280;10712;52.944;9.098;2023-02-12T03:16:13;103556.88;;;15.32;61.16
21109;BME280;10712;52.944;9.098;2023-02-12T03:19:02;103556.03;;;15.30;61.15
21109;BME280;10712;52.944;9.098;2023-02-12T03:21:54;103564.97;;;15.30;61.11
21109;BME280;10712;52.944;9.098;2023-02-12T03:24:46;103562.31;;;15.29;61.11
21109;BME280;10712;52.944;9.098;2023-02-12T03:27:36;103564.13;;;15.28;61.24
21109;BME280;10712;52.944;9.098;2023-02-12T03:30:06;103572.16;;;15.30;61.12
21109;BME280;10712;52.944;9.098;2023-02-12T03:35:26;103574.84;;;15.30;61.25
21109;BME280;10712;52.944;9.098;2023-02-12T03:38:18;103575.72;;;15.30;61.21
21109;BME280;10712;52.944;9.098;2023-02-12T03:41:02;103568.50;;;15.32;61.18
21109;BME280;10712;52.944;9.098;2023-02-12T03:43:58;103573.06;;;15.29;61.20
21109;BME280;10712;52.944;9.098;2023-02-12T03:46:46;103565.81;;;15.32;61.14
21109;BME280;10712;52.944;9.098;2023-02-12T03:49:21;103569.34;;;15.34;60.98
21109;BME280;10712;52.944;9.098;2023-02-12T03:51:49;103572.09;;;15.31;61.12
21109;BME280;10712;52.944;9.098;2023-02-12T03:54:19;103582.84;;;15.31;61.05
21109;BME280;10712;52.944;9.098;2023-02-12T03:57:04;103579.28;;;15.31;61.01
21109;BME280;10712;52.944;9.098;2023-02-12T03:59:35;103583.81;;;15.29;61.03
21109;BME280;10712;52.944;9.098;2023-02-12T04:02:03;103584.78;;;15.28;60.93
21109;BME280;10712;52.944;9.098;2023-02-12T04:04:30;103583.81;;;15.29;61.02
21109;BME280;10712;52.944;9.098;2023-02-12T04:06:56;103580.41;;;15.24;61.04
21109;BME280;10712;52.944;9.098;2023-02-12T04:09:25;103588.38;;;15.27;60.83
21109;BME280;10712;52.944;9.098;2023-02-12T04:12:32;103589.31;;;15.26;60.95
21109;BME280;10712;52.944;9.098;2023-02-12T04:15:41;103592.06;;;15.23;61.00
21109;BME280;10712;52.944;9.098;2023-02-12T04:24:18;103589.50;;;15.20;60.88
21109;BME280;10712;52.944;9.098;2023-02-12T04:26:55;103600.25;;;15.20;60.90
21109;BME280;10712;52.944;9.098;2023-02-12T04:32:39;103600.34;;;15.17;60.96
21109;BME280;10712;52.944;9.098;2023-02-12T04:35:21;103601.19;;;15.19;60.83
21109;BME280;10712;52.944;9.098;2023-02-12T04:38:17;103599.47;;;15.16;61.08
21109;BME280;10712;52.944;9.098;2023-02-12T04:40:46;103594.97;;;15.17;61.02
21109;BME280;10712;52.944;9.098;2023-02-12T04:43:12;103596.72;;;15.18;60.98
21109;BME280;10712;52.944;9.098;2023-02-12T04:45:38;103600.34;;;15.17;60.94
21109;BME280;10712;52.944;9.098;2023-02-12T04:48:05;103600.34;;;15.17;60.96
21109;BME280;10712;52.944;9.098;2023-02-12T04:50:42;103595.91;;;15.16;60.92
21109;BME280;10712;52.944;9.098;2023-02-12T04:53:09;103597.63;;;15.18;60.89
21109;BME280;10712;52.944;9.098;2023-02-12T04:55:35;103594.97;;;15.17;60.92
21109;BME280;10712;52.944;9.098;2023-02-12T04:58:01;103594.97;;;15.17;60.95
21109;BME280;10712;52.944;9.098;2023-02-12T05:00:27;103596.78;;;15.16;60.93
21109;BME280;10712;52.944;9.098;2023-02-12T05:02:53;103591.44;;;15.15;61.04
21109;BME280;10712;52.944;9.098;2023-02-12T05:05:20;103587.84;;;15.16;60.89
21109;BME280;10712;52.944;9.098;2023-02-12T05:07:46;103592.28;;;15.17;60.99
21109;BME280;10712;52.944;9.098;2023-02-12T05:10:13;103587.84;;;15.16;60.98
21109;BME280;10712;52.944;9.098;2023-02-12T05:12:39;103587.75;;;15.19;60.90
21109;BME280;10712;52.944;9.098;2023-02-12T05:15:05;103590.44;;;15.19;60.77
21109;BME280;10712;52.944;9.098;2023-02-12T05:17:30;103594.09;;;15.16;60.80
21109;BME280;10712;52.944;9.098;2023-02-12T05:19:56;103593.22;;;15.16;60.90
21109;BME280;10712;52.944;9.098;2023-02-12T05:22:22;103594.97;;;15.17;60.88
21109;BME280;10712;52.944;9.098;2023-02-12T05:24:48;103594.97;;;15.17;60.76
21109;BME280;10712;52.944;9.098;2023-02-12T05:27:14;103593.22;;;15.16;60.97
21109;BME280;10712;52.944;9.098;2023-02-12T05:29:39;103601.25;;;15.16;60.92
21109;BME280;10712;52.944;9.098;2023-02-12T05:32:05;103594.09;;;15.16;60.85
21109;BME280;10712;52.944;9.098;2023-02-12T05:34:32;103597.78;;;15.14;60.88
21109;BME280;10712;52.944;9.098;2023-02-12T05:36:58;103601.22;;;15.17;60.74
21109;BME280;10712;52.944;9.098;2023-02-12T05:39:24;103599.41;;;15.18;60.63
21109;BME280;10712;52.944;9.098;2023-02-12T05:41:50;103602.19;;;15.15;60.76
21109;BME280;10712;52.944;9.098;2023-02-12T05:44:16;103603.94;;;15.16;60.68
21109;BME280;10712;52.944;9.098;2023-02-12T05:46:42;103599.50;;;15.15;60.70
21109;BME280;10712;52.944;9.098;2023-02-12T05:49:09;103599.50;;;15.15;60.77
21109;BME280;10712;52.944;9.098;2023-02-12T05:51:36;103603.94;;;15.16;60.65
21109;BME280;10712;52.944;9.098;2023-02-12T05:54:05;103602.97;;;15.18;60.68
21109;BME280;10712;52.944;9.098;2023-02-12T05:56:41;103608.44;;;15.15;60.63
21109;BME280;10712;52.944;9.098;2023-02-12T05:59:15;103609.44;;;15.13;60.66
21109;BME280;10712;52.944;9.098;2023-02-12T06:01:43;103614.81;;;15.13;60.58
21109;BME280;10712;52.944;9.098;2023-02-12T06:04:18;103623.75;;;15.13;60.56
21109;BME280;10712;52.944;9.098;2023-02-12T06:06:44;103622.75;;;15.16;60.69
21109;BME280;10712;52.944;9.098;2023-02-12T06:09:12;103624.63;;;15.14;60.62
21109;BME280;10712;52.944;9.098;2023-02-12T06:11:39;103627.31;;;15.14;60.64
21109;BME280;10712;52.944;9.098;2023-02-12T06:14:09;103625.50;;;15.14;60.76
21109;BME280;10712;52.944;9.098;2023-02-12T06:16:35;103630.53;;;15.25;60.41
21109;BME280;10712;52.944;9.098;2023-02-12T06:19:04;103633.44;;;15.17;60.38
21109;BME280;10712;52.944;9.098;2023-02-12T06:21:31;103633.44;;;15.17;60.34
21109;BME280;10712;52.944;9.098;2023-02-12T06:23:58;103633.94;;;15.30;60.10
21109;BME280;10712;52.944;9.098;2023-02-12T06:26:25;103636.09;;;15.19;60.36
21109;BME280;10712;52.944;9.098;2023-02-12T06:28:51;103643.31;;;15.17;60.36
21109;BME280;10712;52.944;9.098;2023-02-12T06:31:24;103638.81;;;15.17;60.35
21109;BME280;10712;52.944;9.098;2023-02-12T06:33:53;103645.97;;;15.18;60.45
21109;BME280;10712;52.944;9.098;2023-02-12T06:36:20;103647.81;;;15.16;60.46
21109;BME280;10712;52.944;9.098;2023-02-12T06:38:47;103650.50;;;15.16;60.43
21109;BME280;10712;52.944;9.098;2023-02-12T06:41:13;103651.47;;;15.14;60.53
21109;BME280;10712;52.944;9.098;2023-02-12T06:43:39;103649.59;;;15.16;60.50
21109;BME280;10712;52.944;9.098;2023-02-12T06:46:06;103653.19;;;15.16;60.52
21109;BME280;10712;52.944;9.098;2023-02-12T06:48:33;103650.53;;;15.15;60.77
21109;BME280;10712;52.944;9.098;2023-02-12T06:51:13;103652.28;;;15.16;60.44
21109;BME280;10712;52.944;9.098;2023-02-12T06:53:40;103657.78;;;15.13;60.59
21109;BME280;10712;52.944;9.098;2023-02-12T06:56:08;103655.97;;;15.13;60.60
21109;BME280;10712;52.944;9.098;2023-02-12T06:58:37;103657.78;;;15.13;60.66
21109;BME280;10712;52.944;9.098;2023-02-12T07:01:16;103662.16;;;15.15;60.46
21109;BME280;10712;52.944;9.098;2023-02-12T07:03:48;103661.19;;;15.18;60.56
21109;BME280;10712;52.944;9.098;2023-02-12T07:06:15;103665.84;;;15.13;60.53
21109;BME280;10712;52.944;9.098;2023-02-12T07:08:41;103663.09;;;15.14;60.58
21109;BME280;10712;52.944;9.098;2023-02-12T07:11:07;103669.41;;;15.13;60.62
21109;BME280;10712;52.944;9.098;2023-02-12T07:13:33;103668.53;;;15.13;60.72
21109;BME280;10712;52.944;9.098;2023-02-12T07:16:15;103671.09;;;15.16;60.59
21109;BME280;10712;52.944;9.098;2023-02-12T07:18:42;103675.53;;;15.17;60.57
21109;BME280;10712;52.944;9.098;2023-02-12T07:21:11;103677.22;;;15.21;60.54
21109;BME280;10712;52.944;9.098;2023-02-12T07:23:37;103673.78;;;15.16;60.67
21109;BME280;10712;52.944;9.098;2023-02-12T07:26:13;103676.41;;;15.17;60.70
21109;BME280;10712;52.944;9.098;2023-02-12T07:28:41;103684.31;;;15.22;60.77
21109;BME280;10712;52.944;9.098;2023-02-12T07:31:11;103680.72;;;15.23;60.29
21109;BME280;10712;52.944;9.098;2023-02-12T07:33:38;103682.59;;;15.21;60.61
21109;BME280;10712;52.944;9.098;2023-02-12T07:36:08;103692.38;;;15.22;60.66
21109;BME280;10712;52.944;9.098;2023-02-12T07:38:35;103691.47;;;15.23;60.68
21109;BME280;10712;52.944;9.098;2023-02-12T07:41:36;103692.47;;;15.20;60.64
21109;BME280;10712;52.944;9.098;2023-02-12T07:44:09;103696.84;;;15.23;60.55
21109;BME280;10712;52.944;9.098;2023-02-12T07:46:47;103704.66;;;15.30;60.51
21109;BME280;10712;52.944;9.098;2023-02-12T07:49:19;103698.53;;;15.27;60.55
21109;BME280;10712;52.944;9.098;2023-02-12T07:51:47;103702.31;;;15.20;60.77
21109;BME280;10712;52.944;9.098;2023-02-12T07:54:14;103706.78;;;15.21;60.60
21109;BME280;10712;52.944;9.098;2023-02-12T07:56:43;103702.22;;;15.23;60.58
21109;BME280;10712;52.944;9.098;2023-02-12T07:59:14;103708.63;;;15.19;60.82
21109;BME280;10712;52.944;9.098;2023-02-12T08:01:45;103709.53;;;15.18;60.77
21109;BME280;10712;52.944;9.098;2023-02-12T08:04:16;103713.09;;;15.18;60.94
21109;BME280;10712;52.944;9.098;2023-02-12T08:06:46;103707.50;;;15.26;60.54
21109;BME280;10712;52.944;9.098;2023-02-12T08:09:17;103704.66;;;15.30;60.46
21109;BME280;10712;52.944;9.098;2023-02-12T08:11:43;103715.63;;;15.23;60.58
21109;BME280;10712;52.944;9.098;2023-02-12T08:14:12;103716.22;;;15.34;60.51
21109;BME280;10712;52.944;9.098;2023-02-12T08:16:40;103717.44;;;15.22;60.75
21109;BME280;10712;52.944;9.098;2023-02-12T08:19:07;103715.69;;;15.21;60.81
21109;BME280;10712;52.944;9.098;2023-02-12T08:21:33;103727.31;;;15.22;60.77
21109;BME280;10712;52.944;9.098;2023-02-12T08:23:59;103719.25;;;15.22;60.84
21109;BME280;10712;52.944;9.098;2023-02-12T08:26:29;103718.31;;;15.23;60.77
21109;BME280;10712;52.944;9.098;2023-02-12T08:29:09;103724.72;;;15.19;60.87
21109;BME280;10712;52.944;9.098;2023-02-12T08:31:39;103721.84;;;15.25;60.87
21109;BME280;10712;52.944;9.098;2023-02-12T08:34:05;103723.63;;;15.26;60.83
21109;BME280;10712;52.944;9.098;2023-02-12T08:36:38;103727.22;;;15.25;61.13
21109;BME280;10712;52.944;9.098;2023-02-12T08:39:06;103736.13;;;15.27;60.98
21109;BME280;10712;52.944;9.098;2023-02-12T08:41:33;103737.78;;;15.31;61.06
21109;BME280;10712;52.944;9.098;2023-02-12T08:44:02;103731.53;;;15.30;61.13
21109;BME280;10712;52.944;9.098;2023-02-12T08:46:32;103732.41;;;15.31;60.96
21109;BME280;10712;52.944;9.098;2023-02-12T08:49:08;103742.19;;;15.33;61.04
21109;BME280;10712;52.944;9.098;2023-02-12T08:51:39;103735.97;;;15.31;60.88
21109;BME280;10712;52.944;9.098;2023-02-12T08:54:10;103747.59;;;15.32;61.06
21109;BME280;10712;52.944;9.098;2023-02-12T08:56:36;103747.59;;;15.32;61.04
21109;BME280;10712;52.944;9.098;2023-02-12T08:59:05;103748.28;;;15.38;61.06
21109;BME280;10712;52.944;9.098;2023-02-12T09:01:35;103747.53;;;15.35;61.02
21109;BME280;10712;52.944;9.098;2023-02-12T09:04:21;103751.88;;;15.39;60.97
21109;BME280;10712;52.944;9.098;2023-02-12T09:06:49;103747.41;;;15.38;61.07
21109;BME280;10712;52.944;9.098;2023-02-12T09:09:15;103759.88;;;15.41;61.01
21109;BME280;10712;52.944;9.098;2023-02-12T09:11:42;103756.28;;;15.42;60.95
21109;BME280;10712;52.944;9.098;2023-02-12T09:14:13;103767.06;;;15.40;61.10
21109;BME280;10712;52.944;9.098;2023-02-12T09:16:40;103761.56;;;15.43;60.97
21109;BME280;10712;52.944;9.098;2023-02-12T09:19:09;103760.78;;;15.41;61.13
21109;BME280;10712;52.944;9.098;2023-02-12T09:21:35;103764.25;;;15.43;61.16
21109;BME280;10712;52.944;9.098;2023-02-12T09:24:02;103770.41;;;15.48;61.07
21109;BME280;10712;52.944;9.098;2023-02-12T09:26:28;103771.31;;;15.47;61.19
21109;BME280;10712;52.944;9.098;2023-02-12T09:28:55;103774.81;;;15.49;61.10
21109;BME280;10712;52.944;9.098;2023-02-12T09:31:27;103764.94;;;15.50;61.15
21109;BME280;10712;52.944;9.098;2023-02-12T09:33:58;103772.97;;;15.51;61.24
21109;BME280;10712;52.944;9.098;2023-02-12T09:36:25;103769.38;;;15.52;61.22
21109;BME280;10712;52.944;9.098;2023-02-12T09:38:51;103772.88;;;15.56;61.29
21109;BME280;10712;52.944;9.098;2023-02-12T09:44:09;103783.47;;;15.60;60.98
21109;BME280;10712;52.944;9.098;2023-02-12T09:46:46;103784.44;;;15.58;61.18
21109;BME280;10712;52.944;9.098;2023-02-12T09:49:50;103783.47;;;15.60;61.21
21109;BME280;10712;52.944;9.098;2023-02-12T09:52:25;103783.28;;;15.66;61.03
21109;BME280;10712;52.944;9.098;2023-02-12T09:54:53;103787.94;;;15.61;61.24
21109;BME280;10712;52.944;9.098;2023-02-12T09:57:30;103790.63;;;15.61;61.45
21109;BME280;10712;52.944;9.098;2023-02-12T10:00:28;103792.41;;;15.62;61.35
21109;BME280;10712;52.944;9.098;2023-02-12T10:03:02;103792.19;;;15.68;61.22
21109;BME280;10712;52.944;9.098;2023-02-12T10:05:34;103798.19;;;15.76;61.00
21109;BME280;10712;52.944;9.098;2023-02-12T10:08:58;103797.47;;;15.71;61.31
21109;BME280;10712;52.944;9.098;2023-02-12T10:18:15;103794.53;;;15.79;61.13
21109;BME280;10712;52.944;9.098;2023-02-12T10:21:10;103794.53;;;15.79;61.27
21109;BME280;10712;52.944;9.098;2023-02-12T10:24:04;103791.53;;;15.90;61.14
21109;BME280;10712;52.944;9.098;2023-02-12T10:26:43;103790.69;;;15.88;61.29
21109;BME280;10712;52.944;9.098;2023-02-12T10:29:22;103797.66;;;15.93;60.96
21109;BME280;10712;52.944;9.098;2023-02-12T10:31:54;103792.44;;;15.89;61.29
21109;BME280;10712;52.944;9.098;2023-02-12T10:34:35;103786.91;;;15.93;61.13
21109;BME280;10712;52.944;9.098;2023-02-12T10:37:31;103791.41;;;15.93;61.20
21109;BME280;10712;52.944;9.098;2023-02-12T10:42:53;103795.00;;;15.92;61.39
21109;BME280;10712;52.944;9.098;2023-02-12T10:45:24;103787.88;;;15.91;61.30
21109;BME280;10712;52.944;9.098;2023-02-12T10:48:03;103785.09;;;15.94;61.30
21109;BME280;10712;52.944;9.098;2023-02-12T10:53:40;103780.44;;;15.99;61.31
21109;BME280;10712;52.944;9.098;2023-02-12T10:58:52;103775.75;;;16.05;61.24
21109;BME280;10712;52.944;9.098;2023-02-12T11:01:36;103783.78;;;16.07;61.21
21109;BME280;10712;52.944;9.098;2023-02-12T11:04:28;103785.53;;;16.08;61.11
21109;BME280;10712;52.944;9.098;2023-02-12T11:07:21;103773.00;;;16.07;61.29
21109;BME280;10712;52.944;9.098;2023-02-12T11:09:50;103778.19;;;16.13;61.15
21109;BME280;10712;52.944;9.098;2023-02-12T11:12:40;103774.34;;;16.20;61.06
21109;BME280;10712;52.944;9.098;2023-02-12T11:15:26;103772.72;;;16.16;61.12
21109;BME280;10712;52.944;9.098;2023-02-12T11:18:05;103772.50;;;16.22;61.01
21109;BME280;10712;52.944;9.098;2023-02-12T11:20:48;103763.72;;;16.17;61.43
21109;BME280;10712;52.944;9.098;2023-02-12T11:23:33;103763.72;;;16.17;61.25
21109;BME280;10712;52.944;9.098;2023-02-12T11:26:02;103762.44;;;16.27;61.15
21109;BME280;10712;52.944;9.098;2023-02-12T11:28:31;103766.16;;;16.25;61.11
21109;BME280;10712;52.944;9.098;2023-02-12T11:33:37;103763.50;;;16.23;61.32
21109;BME280;10712;52.944;9.098;2023-02-12T11:36:16;103764.13;;;16.31;61.14
21109;BME280;10712;52.944;9.098;2023-02-12T11:38:56;103765.75;;;16.35;61.04
21109;BME280;10712;52.944;9.098;2023-02-12T11:41:34;103760.59;;;16.29;61.33
21109;BME280;10712;52.944;9.098;2023-02-12T11:44:27;103767.00;;;16.25;61.49
21109;BME280;10712;52.944;9.098;2023-02-12T11:46:57;103757.03;;;16.29;61.38
21109;BME280;10712;52.944;9.098;2023-02-12T11:49:31;103754.84;;;16.40;60.97
21109;BME280;10712;52.944;9.098;2023-02-12T11:52:02;103751.56;;;16.32;61.30
21109;BME280;10712;52.944;9.098;2023-02-12T11:54:37;103750.50;;;16.36;61.29
21109;BME280;10712;52.944;9.098;2023-02-12T11:57:05;103748.69;;;16.36;61.46
21109;BME280;10712;52.944;9.098;2023-02-12T11:59:39;103737.09;;;16.34;61.55
21109;BME280;10712;52.944;9.098;2023-02-12T12:02:36;103741.53;;;16.35;61.48
21109;BME280;10712;52.944;9.098;2023-02-12T12:05:15;103738.84;;;16.35;61.43
21109;BME280;10712;52.944;9.098;2023-02-12T12:07:54;103737.94;;;16.36;61.46
21109;BME280;10712;52.944;9.098;2023-02-12T12:17:02;103732.31;;;16.42;61.32
21109;BME280;10712;52.944;9.098;2023-02-12T12:20:14;103726.94;;;16.42;61.33
21109;BME280;10712;52.944;9.098;2023-02-12T12:22:59;103723.19;;;16.46;61.31
21109;BME280;10712;52.944;9.098;2023-02-12T12:25:35;103730.03;;;16.57;61.02
21109;BME280;10712;52.944;9.098;2023-02-12T12:31:19;103719.53;;;16.49;61.41
21109;BME280;10712;52.944;9.098;2023-02-12T12:33:50;103720.09;;;16.59;61.54
21109;BME280;10712;52.944;9.098;2023-02-12T12:36:54;103721.13;;;16.54;61.37
21109;BME280;10712;52.944;9.098;2023-02-12T12:43:10;103711.22;;;16.55;61.47
21109;BME280;10712;52.944;9.098;2023-02-12T12:46:02;103706.63;;;16.59;61.64
21109;BME280;10712;52.944;9.098;2023-02-12T12:49:33;103703.44;;;16.47;61.73
21109;BME280;10712;52.944;9.098;2023-02-12T12:52:07;103697.78;;;16.55;61.59
21109;BME280;10712;52.944;9.098;2023-02-12T12:57:38;103694.00;;;16.61;61.63
21109;BME280;10712;52.944;9.098;2023-02-12T13:00:44;103692.16;;;16.63;61.38
21109;BME280;10712;52.944;9.098;2023-02-12T13:03:41;103684.06;;;16.63;61.47
21109;BME280;10712;52.944;9.098;2023-02-12T13:21:05;103685.03;;;16.60;61.62
21109;BME280;10712;52.944;9.098;2023-02-12T13:26:52;103683.22;;;16.61;61.45
21109;BME280;10712;52.944;9.098;2023-02-12T13:29:26;103680.50;;;16.62;61.49
21109;BME280;10712;52.944;9.098;2023-02-12T13:32:32;103677.84;;;16.61;61.46
21109;BME280;10712;52.944;9.098;2023-02-12T13:35:01;103680.22;;;16.70;61.49
21109;BME280;10712;52.944;9.098;2023-02-12T13:37:41;103680.53;;;16.61;61.52
21109;BME280;10712;52.944;9.098;2023-02-12T13:40:26;103683.09;;;16.65;61.40
21109;BME280;10712;52.944;9.098;2023-02-12T13:52:36;103679.72;;;16.59;61.55
21109;BME280;10712;52.944;9.098;2023-02-12T13:55:30;103677.75;;;16.64;61.58
21109;BME280;10712;52.944;9.098;2023-02-12T14:01:02;103684.75;;;16.68;61.65
21109;BME280;10712;52.944;9.098;2023-02-12T14:03:30;103679.38;;;16.68;61.56
21109;BME280;10712;52.944;9.098;2023-02-12T14:06:20;103675.75;;;16.69;61.73
21109;BME280;10712;52.944;9.098;2023-02-12T14:08:52;103679.16;;;16.74;61.55
21109;BME280;10712;52.944;9.098;2023-02-12T14:11:23;103682.03;;;16.69;61.58
21109;BME280;10712;52.944;9.098;2023-02-12T14:14:03;103680.81;;;16.78;61.35
21109;BME280;10712;52.944;9.098;2023-02-12T14:24:55;103677.75;;;16.64;61.49
21109;BME280;10712;52.944;9.098;2023-02-12T14:40:43;103686.06;;;16.56;61.53
21109;BME280;10712;52.944;9.098;2023-02-12T14:43:40;103691.50;;;16.54;61.60
21109;BME280;10712;52.944;9.098;2023-02-12T14:48:56;103692.34;;;16.57;61.50
21109;BME280;10712;52.944;9.098;2023-02-12T14:51:35;103691.50;;;16.54;61.49
21109;BME280;10712;52.944;9.098;2023-02-12T14:54:12;103686.16;;;16.53;61.64
21109;BME280;10712;52.944;9.098;2023-02-12T14:56:47;103688.81;;;16.54;61.55
21109;BME280;10712;52.944;9.098;2023-02-12T14:59:22;103692.22;;;16.60;61.40
21109;BME280;10712;52.944;9.098;2023-02-12T15:01:50;103686.03;;;16.58;61.44
21109;BME280;10712;52.944;9.098;2023-02-12T15:04:27;103685.19;;;16.55;61.40
21109;BME280;10712;52.944;9.098;2023-02-12T15:07:06;103683.56;;;16.51;61.57
21109;BME280;10712;52.944;9.098;2023-02-12T15:09:57;103688.94;;;16.51;61.51
21109;BME280;10712;52.944;9.098;2023-02-12T15:12:26;103685.50;;;16.46;61.70
21109;BME280;10712;52.944;9.098;2023-02-12T15:15:24;103685.75;;;16.40;61.65
21109;BME280;10712;52.944;9.098;2023-02-12T15:18:00;103685.66;;;16.43;61.59
21109;BME280;10712;52.944;9.098;2023-02-12T15:20:44;103700.03;;;16.42;61.59
21109;BME280;10712;52.944;9.098;2023-02-12T15:23:41;103705.41;;;16.42;61.51
21109;BME280;10712;52.944;9.098;2023-02-12T15:26:18;103694.56;;;16.45;61.53
21109;BME280;10712;52.944;9.098;2023-02-12T15:28:48;103702.50;;;16.48;61.44